1L3 weather

Searchlight Airport
Searchlight, Nevada, United States

Public forecast

Using degrees Fahrenheit for public forecast. Weather courtesy of forecast.io.

METAR (pilot weather report)

Closest report is Laughlin Bullhead International Airport, 24.3 nm (45.0 km) SE. Retrieved 2019/03/23 15:47 UTC (24 minutes ago):

KIFP 231547Z 00000KT 20SM SCT120 15/04 A3008

TAF (pilot weather forecast)

Closest forecast is Laughlin Bullhead International Airport, 24.3 nm (45.0 km) SE. Retrieved 2019/03/23 12:22 UTC (4 hours ago):

TAF KIFP 231120Z 2312/2412 VRB05KT P6SM BKN200 FM231800 18007KT P6SM BKN200 FM232000 19010G20KT P6SM BKN200 FM240200 17007KT P6SM BKN200